sensor_id;sensor_type;location;lat;lon;timestamp;temperature;humidity
52058;DHT22;38063;53.210;6.504;2023-03-01T00:02:02;-0.10;99.90
52058;DHT22;38063;53.210;6.504;2023-03-01T00:04:30;-0.50;99.90
52058;DHT22;38063;53.210;6.504;2023-03-01T00:06:55;-0.50;99.90
52058;DHT22;38063;53.210;6.504;2023-03-01T00:09:21;-0.50;99.90
52058;DHT22;38063;53.210;6.504;2023-03-01T00:11:47;-0.50;99.90
52058;DHT22;38063;53.210;6.504;2023-03-01T00:14:13;-0.60;99.90
52058;DHT22;38063;53.210;6.504;2023-03-01T00:16:42;-0.60;99.90
52058;DHT22;38063;53.210;6.504;2023-03-01T00:19:13;-0.60;99.90
52058;DHT22;38063;53.210;6.504;2023-03-01T00:21:39;-0.60;99.90
52058;DHT22;38063;53.210;6.504;2023-03-01T00:24:05;-0.60;99.90
52058;DHT22;38063;53.210;6.504;2023-03-01T00:26:31;-0.60;99.90
52058;DHT22;38063;53.210;6.504;2023-03-01T00:28:58;-0.70;99.90
52058;DHT22;38063;53.210;6.504;2023-03-01T00:31:26;0.10;99.90
52058;DHT22;38063;53.210;6.504;2023-03-01T00:33:54;-0.70;99.90
52058;DHT22;38063;53.210;6.504;2023-03-01T00:36:27;-0.70;99.90
52058;DHT22;38063;53.210;6.504;2023-03-01T00:38:53;-0.80;99.90
52058;DHT22;38063;53.210;6.504;2023-03-01T00:41:19;-0.80;99.90
52058;DHT22;38063;53.210;6.504;2023-03-01T00:43:45;-0.80;99.90
52058;DHT22;38063;53.210;6.504;2023-03-01T00:46:13;-0.90;99.90
52058;DHT22;38063;53.210;6.504;2023-03-01T00:48:40;-0.90;99.90
52058;DHT22;38063;53.210;6.504;2023-03-01T00:53:31;-0.90;99.90
52058;DHT22;38063;53.210;6.504;2023-03-01T00:55:57;-0.90;99.90
52058;DHT22;38063;53.210;6.504;2023-03-01T00:58:23;-1.00;99.90
52058;DHT22;38063;53.210;6.504;2023-03-01T01:00:49;-1.00;99.90
52058;DHT22;38063;53.210;6.504;2023-03-01T01:03:15;-1.00;99.90
52058;DHT22;38063;53.210;6.504;2023-03-01T01:05:40;-1.10;99.90
52058;DHT22;38063;53.210;6.504;2023-03-01T01:08:06;-1.10;99.90
52058;DHT22;38063;53.210;6.504;2023-03-01T01:10:34;-1.10;99.90
52058;DHT22;38063;53.210;6.504;2023-03-01T01:13:00;-1.10;99.90
52058;DHT22;38063;53.210;6.504;2023-03-01T01:15:26;-1.10;99.90
52058;DHT22;38063;53.210;6.504;2023-03-01T01:17:52;-1.10;99.90
52058;DHT22;38063;53.210;6.504;2023-03-01T01:20:18;-1.20;99.90
52058;DHT22;38063;53.210;6.504;2023-03-01T01:22:43;-1.20;99.90
52058;DHT22;38063;53.210;6.504;2023-03-01T01:25:09;-1.20;99.90
52058;DHT22;38063;53.210;6.504;2023-03-01T01:27:36;-1.20;99.90
52058;DHT22;38063;53.210;6.504;2023-03-01T01:30:03;-0.50;99.90
52058;DHT22;38063;53.210;6.504;2023-03-01T01:32:29;-1.30;99.90
52058;DHT22;38063;53.210;6.504;2023-03-01T01:34:54;-1.30;99.90
52058;DHT22;38063;53.210;6.504;2023-03-01T01:37:20;-1.30;99.90
52058;DHT22;38063;53.210;6.504;2023-03-01T01:39:46;-1.30;99.90
52058;DHT22;38063;53.210;6.504;2023-03-01T01:42:16;-1.30;99.90
52058;DHT22;38063;53.210;6.504;2023-03-01T01:44:46;-1.40;99.90
52058;DHT22;38063;53.210;6.504;2023-03-01T01:47:18;-1.40;99.90
52058;DHT22;38063;53.210;6.504;2023-03-01T01:49:55;-1.40;99.90
52058;DHT22;38063;53.210;6.504;2023-03-01T01:54:56;-1.50;99.90
52058;DHT22;38063;53.210;6.504;2023-03-01T01:57:32;-1.50;99.90
52058;DHT22;38063;53.210;6.504;2023-03-01T02:00:03;-1.50;99.90
52058;DHT22;38063;53.210;6.504;2023-03-01T02:02:30;-1.00;99.90
52058;DHT22;38063;53.210;6.504;2023-03-01T02:05:03;-1.60;99.90
52058;DHT22;38063;53.210;6.504;2023-03-01T02:07:38;-1.50;99.90
52058;DHT22;38063;53.210;6.504;2023-03-01T02:10:05;-1.60;99.90
52058;DHT22;38063;53.210;6.504;2023-03-01T02:12:31;-1.60;99.90
52058;DHT22;38063;53.210;6.504;2023-03-01T02:14:57;-1.60;99.90
52058;DHT22;38063;53.210;6.504;2023-03-01T02:17:23;-1.70;99.90
52058;DHT22;38063;53.210;6.504;2023-03-01T02:22:36;-1.70;99.90
52058;DHT22;38063;53.210;6.504;2023-03-01T02:30:34;-1.80;99.90
52058;DHT22;38063;53.210;6.504;2023-03-01T02:33:00;-1.80;99.90
52058;DHT22;38063;53.210;6.504;2023-03-01T02:35:36;-1.80;99.90
52058;DHT22;38063;53.210;6.504;2023-03-01T02:38:06;-1.90;99.90
52058;DHT22;38063;53.210;6.504;2023-03-01T02:40:34;-1.90;99.90
52058;DHT22;38063;53.210;6.504;2023-03-01T02:43:00;-1.90;99.90
52058;DHT22;38063;53.210;6.504;2023-03-01T02:45:27;-1.90;99.90
52058;DHT22;38063;53.210;6.504;2023-03-01T02:47:57;-2.00;99.90
52058;DHT22;38063;53.210;6.504;2023-03-01T02:53:08;-2.10;99.90
52058;DHT22;38063;53.210;6.504;2023-03-01T02:55:36;-2.10;99.90
52058;DHT22;38063;53.210;6.504;2023-03-01T02:58:02;-2.10;99.90
52058;DHT22;38063;53.210;6.504;2023-03-01T03:00:31;-2.10;99.90
52058;DHT22;38063;53.210;6.504;2023-03-01T03:02:58;-2.10;99.90
52058;DHT22;38063;53.210;6.504;2023-03-01T03:05:26;-2.10;99.90
52058;DHT22;38063;53.210;6.504;2023-03-01T03:07:52;-2.20;99.90
52058;DHT22;38063;53.210;6.504;2023-03-01T03:10:24;-2.20;99.90
52058;DHT22;38063;53.210;6.504;2023-03-01T03:13:02;-2.20;99.90
52058;DHT22;38063;53.210;6.504;2023-03-01T03:15:29;-2.30;99.90
52058;DHT22;38063;53.210;6.504;2023-03-01T03:17:55;-2.30;99.90
52058;DHT22;38063;53.210;6.504;2023-03-01T03:20:23;-0.80;99.90
52058;DHT22;38063;53.210;6.504;2023-03-01T03:22:51;-2.30;99.90
52058;DHT22;38063;53.210;6.504;2023-03-01T03:25:19;-2.30;99.90
52058;DHT22;38063;53.210;6.504;2023-03-01T03:27:46;-2.30;99.90
52058;DHT22;38063;53.210;6.504;2023-03-01T03:30:15;-2.30;99.90
52058;DHT22;38063;53.210;6.504;2023-03-01T03:32:42;-2.30;99.90
52058;DHT22;38063;53.210;6.504;2023-03-01T03:35:24;-2.30;99.90
52058;DHT22;38063;53.210;6.504;2023-03-01T03:37:51;-2.30;99.90
52058;DHT22;38063;53.210;6.504;2023-03-01T03:40:39;-2.40;99.90
52058;DHT22;38063;53.210;6.504;2023-03-01T03:43:11;-2.50;99.90
52058;DHT22;38063;53.210;6.504;2023-03-01T03:45:37;-2.40;99.90
52058;DHT22;38063;53.210;6.504;2023-03-01T03:48:05;-2.40;99.90
52058;DHT22;38063;53.210;6.504;2023-03-01T03:50:31;-2.40;99.90
52058;DHT22;38063;53.210;6.504;2023-03-01T03:52:57;-2.50;99.90
52058;DHT22;38063;53.210;6.504;2023-03-01T03:55:23;-2.40;99.90
52058;DHT22;38063;53.210;6.504;2023-03-01T03:57:53;-2.50;99.90
52058;DHT22;38063;53.210;6.504;2023-03-01T04:00:21;-2.50;99.90
52058;DHT22;38063;53.210;6.504;2023-03-01T04:02:47;-2.50;99.90
52058;DHT22;38063;53.210;6.504;2023-03-01T04:05:15;-2.50;99.90
52058;DHT22;38063;53.210;6.504;2023-03-01T04:07:42;-2.50;99.90
52058;DHT22;38063;53.210;6.504;2023-03-01T04:10:10;-2.50;99.90
52058;DHT22;38063;53.210;6.504;2023-03-01T04:12:36;-2.50;99.90
52058;DHT22;38063;53.210;6.504;2023-03-01T04:15:04;-2.60;99.90
52058;DHT22;38063;53.210;6.504;2023-03-01T04:17:44;-2.60;99.90
52058;DHT22;38063;53.210;6.504;2023-03-01T04:20:12;-2.60;99.90
52058;DHT22;38063;53.210;6.504;2023-03-01T04:22:39;-2.70;99.90
52058;DHT22;38063;53.210;6.504;2023-03-01T04:25:06;-2.70;99.90
52058;DHT22;38063;53.210;6.504;2023-03-01T04:27:35;-2.80;99.90
52058;DHT22;38063;53.210;6.504;2023-03-01T04:30:04;-2.80;99.90
52058;DHT22;38063;53.210;6.504;2023-03-01T04:32:30;-2.90;99.90
52058;DHT22;38063;53.210;6.504;2023-03-01T04:34:56;-2.20;99.90
52058;DHT22;38063;53.210;6.504;2023-03-01T04:37:21;-3.00;99.90
52058;DHT22;38063;53.210;6.504;2023-03-01T04:39:47;-3.00;99.90
52058;DHT22;38063;53.210;6.504;2023-03-01T04:42:16;-3.00;99.90
52058;DHT22;38063;53.210;6.504;2023-03-01T04:44:45;-3.10;99.90
52058;DHT22;38063;53.210;6.504;2023-03-01T04:47:11;-3.10;99.90
52058;DHT22;38063;53.210;6.504;2023-03-01T04:49:37;-3.10;99.90
52058;DHT22;38063;53.210;6.504;2023-03-01T04:52:03;-3.20;99.90
52058;DHT22;38063;53.210;6.504;2023-03-01T04:54:34;-3.20;99.90
52058;DHT22;38063;53.210;6.504;2023-03-01T04:57:00;-3.30;99.90
52058;DHT22;38063;53.210;6.504;2023-03-01T04:59:27;-3.30;99.90
52058;DHT22;38063;53.210;6.504;2023-03-01T05:01:53;-3.30;99.90
52058;DHT22;38063;53.210;6.504;2023-03-01T05:04:23;-3.30;99.90
52058;DHT22;38063;53.210;6.504;2023-03-01T05:06:49;-3.30;99.90
52058;DHT22;38063;53.210;6.504;2023-03-01T05:09:15;-3.30;99.90
52058;DHT22;38063;53.210;6.504;2023-03-01T05:11:41;-3.30;99.90
52058;DHT22;38063;53.210;6.504;2023-03-01T05:14:08;-3.30;99.90
52058;DHT22;38063;53.210;6.504;2023-03-01T05:16:35;-3.30;99.90
52058;DHT22;38063;53.210;6.504;2023-03-01T05:19:02;-3.30;99.90
52058;DHT22;38063;53.210;6.504;2023-03-01T05:21:37;-3.30;99.90
52058;DHT22;38063;53.210;6.504;2023-03-01T05:24:23;-3.30;99.90
52058;DHT22;38063;53.210;6.504;2023-03-01T05:26:49;-3.30;99.90
52058;DHT22;38063;53.210;6.504;2023-03-01T05:29:18;-3.30;99.90
52058;DHT22;38063;53.210;6.504;2023-03-01T05:31:52;-3.30;99.90
52058;DHT22;38063;53.210;6.504;2023-03-01T05:34:22;-3.20;99.90
52058;DHT22;38063;53.210;6.504;2023-03-01T05:36:48;-2.90;99.90
52058;DHT22;38063;53.210;6.504;2023-03-01T05:39:14;-3.20;99.90
52058;DHT22;38063;53.210;6.504;2023-03-01T05:41:39;-3.20;99.90
52058;DHT22;38063;53.210;6.504;2023-03-01T05:44:06;-3.20;99.90
52058;DHT22;38063;53.210;6.504;2023-03-01T05:46:32;-3.20;99.90
52058;DHT22;38063;53.210;6.504;2023-03-01T05:48:57;-3.30;99.90
52058;DHT22;38063;53.210;6.504;2023-03-01T05:51:23;-3.20;99.90
52058;DHT22;38063;53.210;6.504;2023-03-01T05:53:49;-3.20;99.90
52058;DHT22;38063;53.210;6.504;2023-03-01T05:56:15;-3.20;99.90
52058;DHT22;38063;53.210;6.504;2023-03-01T05:58:40;-3.20;99.90
52058;DHT22;38063;53.210;6.504;2023-03-01T06:01:11;-3.20;99.90
52058;DHT22;38063;53.210;6.504;2023-03-01T06:03:36;-3.20;99.90
52058;DHT22;38063;53.210;6.504;2023-03-01T06:06:02;-3.20;99.90
52058;DHT22;38063;53.210;6.504;2023-03-01T06:08:28;-3.20;99.90
52058;DHT22;38063;53.210;6.504;2023-03-01T06:10:54;-3.20;99.90
52058;DHT22;38063;53.210;6.504;2023-03-01T06:13:19;-1.40;99.90
52058;DHT22;38063;53.210;6.504;2023-03-01T06:15:45;-3.20;99.90
52058;DHT22;38063;53.210;6.504;2023-03-01T06:18:11;-3.20;99.90
52058;DHT22;38063;53.210;6.504;2023-03-01T06:20:36;-3.20;99.90
52058;DHT22;38063;53.210;6.504;2023-03-01T06:23:02;-3.20;99.90
52058;DHT22;38063;53.210;6.504;2023-03-01T06:25:28;-3.20;99.90
52058;DHT22;38063;53.210;6.504;2023-03-01T06:27:53;-2.40;99.90
52058;DHT22;38063;53.210;6.504;2023-03-01T06:30:21;-3.20;99.90
52058;DHT22;38063;53.210;6.504;2023-03-01T06:32:47;-3.20;99.90
52058;DHT22;38063;53.210;6.504;2023-03-01T06:35:14;-3.20;99.90
52058;DHT22;38063;53.210;6.504;2023-03-01T06:37:43;-3.20;99.90
52058;DHT22;38063;53.210;6.504;2023-03-01T06:40:09;-3.20;99.90
52058;DHT22;38063;53.210;6.504;2023-03-01T06:42:38;-3.20;99.90
52058;DHT22;38063;53.210;6.504;2023-03-01T06:45:05;-3.20;99.90
52058;DHT22;38063;53.210;6.504;2023-03-01T06:47:32;-3.20;99.90
52058;DHT22;38063;53.210;6.504;2023-03-01T06:49:59;-3.20;99.90
52058;DHT22;38063;53.210;6.504;2023-03-01T06:52:25;-3.10;99.90
52058;DHT22;38063;53.210;6.504;2023-03-01T06:54:50;-3.10;99.90
52058;DHT22;38063;53.210;6.504;2023-03-01T06:57:16;-3.20;99.90
52058;DHT22;38063;53.210;6.504;2023-03-01T06:59:42;-3.10;99.90
52058;DHT22;38063;53.210;6.504;2023-03-01T07:02:10;-3.10;99.90
52058;DHT22;38063;53.210;6.504;2023-03-01T07:04:36;-3.10;99.90
52058;DHT22;38063;53.210;6.504;2023-03-01T07:07:02;-3.10;99.90
52058;DHT22;38063;53.210;6.504;2023-03-01T07:09:28;-3.10;99.90
52058;DHT22;38063;53.210;6.504;2023-03-01T07:11:53;-3.00;99.90
52058;DHT22;38063;53.210;6.504;2023-03-01T07:14:19;-2.90;99.90
52058;DHT22;38063;53.210;6.504;2023-03-01T07:16:45;-3.00;99.90
52058;DHT22;38063;53.210;6.504;2023-03-01T07:19:11;-2.90;99.90
52058;DHT22;38063;53.210;6.504;2023-03-01T07:21:37;-2.90;99.90
52058;DHT22;38063;53.210;6.504;2023-03-01T07:24:06;-2.90;99.90
52058;DHT22;38063;53.210;6.504;2023-03-01T07:26:32;-2.90;99.90
52058;DHT22;38063;53.210;6.504;2023-03-01T07:28:59;-2.60;99.90
52058;DHT22;38063;53.210;6.504;2023-03-01T07:31:25;-2.80;99.90
52058;DHT22;38063;53.210;6.504;2023-03-01T07:33:53;-2.70;99.90
52058;DHT22;38063;53.210;6.504;2023-03-01T07:36:19;-2.70;99.90
52058;DHT22;38063;53.210;6.504;2023-03-01T07:38:45;-2.60;99.90
52058;DHT22;38063;53.210;6.504;2023-03-01T07:41:11;-2.60;99.90
52058;DHT22;38063;53.210;6.504;2023-03-01T07:43:36;-2.60;99.90
52058;DHT22;38063;53.210;6.504;2023-03-01T07:46:03;-2.50;99.90
52058;DHT22;38063;53.210;6.504;2023-03-01T07:48:30;-2.40;99.90
52058;DHT22;38063;53.210;6.504;2023-03-01T07:51:00;-2.40;99.90
52058;DHT22;38063;53.210;6.504;2023-03-01T07:53:26;-2.30;99.90
52058;DHT22;38063;53.210;6.504;2023-03-01T07:56:24;-2.30;99.90
52058;DHT22;38063;53.210;6.504;2023-03-01T07:58:50;-2.20;99.90
52058;DHT22;38063;53.210;6.504;2023-03-01T08:01:18;-2.20;99.90
52058;DHT22;38063;53.210;6.504;2023-03-01T08:03:44;-2.10;99.90
52058;DHT22;38063;53.210;6.504;2023-03-01T08:06:12;-2.00;99.90
52058;DHT22;38063;53.210;6.504;2023-03-01T08:08:38;-2.00;99.90
52058;DHT22;38063;53.210;6.504;2023-03-01T08:11:06;-1.90;99.90
52058;DHT22;38063;53.210;6.504;2023-03-01T08:13:32;-1.80;99.90
52058;DHT22;38063;53.210;6.504;2023-03-01T08:16:03;-1.70;99.90
52058;DHT22;38063;53.210;6.504;2023-03-01T08:18:29;-1.70;99.90
52058;DHT22;38063;53.210;6.504;2023-03-01T08:20:54;-1.60;99.90
52058;DHT22;38063;53.210;6.504;2023-03-01T08:23:20;-1.60;99.90
52058;DHT22;38063;53.210;6.504;2023-03-01T08:25:45;-1.50;99.90
52058;DHT22;38063;53.210;6.504;2023-03-01T08:28:11;-1.50;99.90
52058;DHT22;38063;53.210;6.504;2023-03-01T08:30:37;-1.40;99.90
52058;DHT22;38063;53.210;6.504;2023-03-01T08:33:02;-1.30;99.90
52058;DHT22;38063;53.210;6.504;2023-03-01T08:35:28;-1.30;99.90
52058;DHT22;38063;53.210;6.504;2023-03-01T08:37:53;-1.20;99.90
52058;DHT22;38063;53.210;6.504;2023-03-01T08:40:19;-1.10;99.90
52058;DHT22;38063;53.210;6.504;2023-03-01T08:42:45;-1.00;99.90
52058;DHT22;38063;53.210;6.504;2023-03-01T08:45:11;-0.90;99.90
52058;DHT22;38063;53.210;6.504;2023-03-01T08:47:37;-0.80;99.90
52058;DHT22;38063;53.210;6.504;2023-03-01T08:50:03;-0.80;99.90
52058;DHT22;38063;53.210;6.504;2023-03-01T08:52:29;-0.60;99.90
52058;DHT22;38063;53.210;6.504;2023-03-01T08:54:56;-0.60;99.90
52058;DHT22;38063;53.210;6.504;2023-03-01T08:57:22;-0.40;99.90
52058;DHT22;38063;53.210;6.504;2023-03-01T08:59:48;-0.30;99.90
52058;DHT22;38063;53.210;6.504;2023-03-01T09:02:17;-0.20;99.90
52058;DHT22;38063;53.210;6.504;2023-03-01T09:04:44;0.00;99.90
52058;DHT22;38063;53.210;6.504;2023-03-01T09:07:10;0.50;99.90
52058;DHT22;38063;53.210;6.504;2023-03-01T09:09:36;0.10;99.90
52058;DHT22;38063;53.210;6.504;2023-03-01T09:12:02;0.20;99.90
52058;DHT22;38063;53.210;6.504;2023-03-01T09:14:28;0.30;99.90
52058;DHT22;38063;53.210;6.504;2023-03-01T09:16:54;0.40;99.90
52058;DHT22;38063;53.210;6.504;2023-03-01T09:19:20;0.50;99.90
52058;DHT22;38063;53.210;6.504;2023-03-01T09:21:45;0.60;99.90
52058;DHT22;38063;53.210;6.504;2023-03-01T09:24:19;0.70;99.90
52058;DHT22;38063;53.210;6.504;2023-03-01T09:26:46;0.70;99.90
52058;DHT22;38063;53.210;6.504;2023-03-01T09:29:12;0.90;99.90
52058;DHT22;38063;53.210;6.504;2023-03-01T09:31:38;0.90;99.90
52058;DHT22;38063;53.210;6.504;2023-03-01T09:34:04;1.00;99.90
52058;DHT22;38063;53.210;6.504;2023-03-01T09:36:30;1.30;99.90
52058;DHT22;38063;53.210;6.504;2023-03-01T09:38:59;1.30;99.90
52058;DHT22;38063;53.210;6.504;2023-03-01T09:41:49;1.30;99.90
52058;DHT22;38063;53.210;6.504;2023-03-01T09:46:44;1.40;99.90
52058;DHT22;38063;53.210;6.504;2023-03-01T09:49:27;1.50;99.90
52058;DHT22;38063;53.210;6.504;2023-03-01T09:54:22;1.70;99.90
52058;DHT22;38063;53.210;6.504;2023-03-01T09:59:43;2.00;99.90
52058;DHT22;38063;53.210;6.504;2023-03-01T10:02:46;2.10;99.90
52058;DHT22;38063;53.210;6.504;2023-03-01T10:05:35;2.20;99.90
52058;DHT22;38063;53.210;6.504;2023-03-01T10:10:48;2.40;99.90
52058;DHT22;38063;53.210;6.504;2023-03-01T10:13:56;2.60;99.90
52058;DHT22;38063;53.210;6.504;2023-03-01T10:16:14;2.70;99.90
52058;DHT22;38063;53.210;6.504;2023-03-01T10:18:41;2.80;99.90
52058;DHT22;38063;53.210;6.504;2023-03-01T10:21:17;3.00;99.90
52058;DHT22;38063;53.210;6.504;2023-03-01T10:23:44;3.10;99.90
52058;DHT22;38063;53.210;6.504;2023-03-01T10:26:32;3.30;99.90
52058;DHT22;38063;53.210;6.504;2023-03-01T10:29:10;3.40;99.90
52058;DHT22;38063;53.210;6.504;2023-03-01T10:31:43;3.50;99.90
52058;DHT22;38063;53.210;6.504;2023-03-01T10:34:37;3.60;99.90
52058;DHT22;38063;53.210;6.504;2023-03-01T10:37:16;3.80;99.90
52058;DHT22;38063;53.210;6.504;2023-03-01T10:39:58;3.90;99.90
52058;DHT22;38063;53.210;6.504;2023-03-01T10:42:34;4.90;99.90
52058;DHT22;38063;53.210;6.504;2023-03-01T10:48:11;4.30;99.90
52058;DHT22;38063;53.210;6.504;2023-03-01T10:50:43;4.40;99.90
52058;DHT22;38063;53.210;6.504;2023-03-01T10:53:22;4.50;99.90
52058;DHT22;38063;53.210;6.504;2023-03-01T10:58:29;4.70;99.90
52058;DHT22;38063;53.210;6.504;2023-03-01T11:03:37;4.90;99.90
52058;DHT22;38063;53.210;6.504;2023-03-01T11:06:21;5.10;99.90
52058;DHT22;38063;53.210;6.504;2023-03-01T11:08:49;5.10;99.90
52058;DHT22;38063;53.210;6.504;2023-03-01T11:21:32;5.60;99.90
52058;DHT22;38063;53.210;6.504;2023-03-01T11:24:01;6.90;99.90
52058;DHT22;38063;53.210;6.504;2023-03-01T11:26:28;5.80;99.90
52058;DHT22;38063;53.210;6.504;2023-03-01T11:28:58;5.90;99.90
52058;DHT22;38063;53.210;6.504;2023-03-01T11:31:26;6.00;99.90
52058;DHT22;38063;53.210;6.504;2023-03-01T11:33:57;6.90;99.90
52058;DHT22;38063;53.210;6.504;2023-03-01T11:36:45;6.30;99.90
52058;DHT22;38063;53.210;6.504;2023-03-01T11:39:28;6.40;99.90
52058;DHT22;38063;53.210;6.504;2023-03-01T11:42:17;6.50;99.90
52058;DHT22;38063;53.210;6.504;2023-03-01T11:44:47;6.60;99.90
52058;DHT22;38063;53.210;6.504;2023-03-01T11:47:33;7.00;99.90
52058;DHT22;38063;53.210;6.504;2023-03-01T11:55:51;7.20;99.90
52058;DHT22;38063;53.210;6.504;2023-03-01T12:01:01;7.60;99.90
52058;DHT22;38063;53.210;6.504;2023-03-01T12:06:28;7.90;99.90
52058;DHT22;38063;53.210;6.504;2023-03-01T12:22:43;8.60;99.90
52058;DHT22;38063;53.210;6.504;2023-03-01T12:28:02;8.80;99.90
52058;DHT22;38063;53.210;6.504;2023-03-01T12:33:20;9.30;99.90
52058;DHT22;38063;53.210;6.504;2023-03-01T12:35:54;9.00;99.90
52058;DHT22;38063;53.210;6.504;2023-03-01T12:38:45;9.10;99.90
52058;DHT22;38063;53.210;6.504;2023-03-01T12:41:42;9.20;99.90
52058;DHT22;38063;53.210;6.504;2023-03-01T12:44:38;9.30;99.90
52058;DHT22;38063;53.210;6.504;2023-03-01T12:50:21;9.20;99.90
52058;DHT22;38063;53.210;6.504;2023-03-01T12:52:57;9.20;99.90
52058;DHT22;38063;53.210;6.504;2023-03-01T12:55:37;9.10;99.90
52058;DHT22;38063;53.210;6.504;2023-03-01T13:09:14;9.30;99.90
52058;DHT22;38063;53.210;6.504;2023-03-01T13:11:42;9.60;99.90
52058;DHT22;38063;53.210;6.504;2023-03-01T13:16:47;9.70;99.90
52058;DHT22;38063;53.210;6.504;2023-03-01T13:19:25;9.60;99.90
52058;DHT22;38063;53.210;6.504;2023-03-01T13:21:53;9.50;99.90
52058;DHT22;38063;53.210;6.504;2023-03-01T13:24:43;9.40;99.90
52058;DHT22;38063;53.210;6.504;2023-03-01T13:27:09;9.50;99.90
52058;DHT22;38063;53.210;6.504;2023-03-01T13:32:25;9.30;99.90
52058;DHT22;38063;53.210;6.504;2023-03-01T13:34:59;9.30;99.90
52058;DHT22;38063;53.210;6.504;2023-03-01T13:37:28;9.30;99.90
52058;DHT22;38063;53.210;6.504;2023-03-01T13:39:59;9.70;99.90
52058;DHT22;38063;53.210;6.504;2023-03-01T13:42:39;9.30;99.90
52058;DHT22;38063;53.210;6.504;2023-03-01T13:47:42;9.30;99.90
52058;DHT22;38063;53.210;6.504;2023-03-01T13:50:18;9.30;99.90
52058;DHT22;38063;53.210;6.504;2023-03-01T13:53:05;9.30;99.90
52058;DHT22;38063;53.210;6.504;2023-03-01T13:55:44;9.30;99.90
52058;DHT22;38063;53.210;6.504;2023-03-01T13:58:22;9.60;99.90
52058;DHT22;38063;53.210;6.504;2023-03-01T14:00:56;9.40;99.90
52058;DHT22;38063;53.210;6.504;2023-03-01T14:03:22;9.40;99.90
52058;DHT22;38063;53.210;6.504;2023-03-01T14:08:35;9.50;99.90
52058;DHT22;38063;53.210;6.504;2023-03-01T14:14:15;9.60;99.90
52058;DHT22;38063;53.210;6.504;2023-03-01T14:19:37;9.60;99.90
52058;DHT22;38063;53.210;6.504;2023-03-01T14:22:24;9.60;99.90
52058;DHT22;38063;53.210;6.504;2023-03-01T14:24:59;9.50;99.90
52058;DHT22;38063;53.210;6.504;2023-03-01T14:27:38;9.40;99.90
52058;DHT22;38063;53.210;6.504;2023-03-01T14:32:37;9.30;99.90
52058;DHT22;38063;53.210;6.504;2023-03-01T14:35:18;9.30;99.90
52058;DHT22;38063;53.210;6.504;2023-03-01T14:37:44;9.20;99.90
52058;DHT22;38063;53.210;6.504;2023-03-01T14:40:41;9.20;99.90
52058;DHT22;38063;53.210;6.504;2023-03-01T14:43:11;9.20;99.90
52058;DHT22;38063;53.210;6.504;2023-03-01T14:45:37;9.20;99.90
52058;DHT22;38063;53.210;6.504;2023-03-01T14:48:05;9.10;99.90
52058;DHT22;38063;53.210;6.504;2023-03-01T14:50:34;9.30;99.90
52058;DHT22;38063;53.210;6.504;2023-03-01T14:53:03;9.00;99.90
52058;DHT22;38063;53.210;6.504;2023-03-01T14:55:38;9.00;99.90
52058;DHT22;38063;53.210;6.504;2023-03-01T14:58:12;8.90;99.90
52058;DHT22;38063;53.210;6.504;2023-03-01T15:00:39;8.90;99.90
52058;DHT22;38063;53.210;6.504;2023-03-01T15:03:17;8.80;99.90
52058;DHT22;38063;53.210;6.504;2023-03-01T15:05:45;8.80;99.90
52058;DHT22;38063;53.210;6.504;2023-03-01T15:08:23;8.90;99.90
52058;DHT22;38063;53.210;6.504;2023-03-01T15:13:39;8.90;99.90
52058;DHT22;38063;53.210;6.504;2023-03-01T15:16:10;8.90;99.90
52058;DHT22;38063;53.210;6.504;2023-03-01T15:18:37;8.80;99.90
52058;DHT22;38063;53.210;6.504;2023-03-01T15:21:35;8.90;99.90
52058;DHT22;38063;53.210;6.504;2023-03-01T15:27:13;8.80;99.90
52058;DHT22;38063;53.210;6.504;2023-03-01T15:29:32;8.80;99.90
52058;DHT22;38063;53.210;6.504;2023-03-01T15:32:06;8.80;99.90
52058;DHT22;38063;53.210;6.504;2023-03-01T15:34:37;8.70;99.90
52058;DHT22;38063;53.210;6.504;2023-03-01T15:37:05;8.50;99.90
52058;DHT22;38063;53.210;6.504;2023-03-01T15:45:22;8.10;99.90
52058;DHT22;38063;53.210;6.504;2023-03-01T15:47:50;8.30;99.90
52058;DHT22;38063;53.210;6.504;2023-03-01T15:50:22;8.10;99.90
52058;DHT22;38063;53.210;6.504;2023-03-01T15:52:48;8.10;99.90
52058;DHT22;38063;53.210;6.504;2023-03-01T15:55:23;8.20;99.90
52058;DHT22;38063;53.210;6.504;2023-03-01T15:58:04;8.20;99.90
52058;DHT22;38063;53.210;6.504;2023-03-01T16:00:32;8.20;99.90
52058;DHT22;38063;53.210;6.504;2023-03-01T16:02:58;8.40;99.90
52058;DHT22;38063;53.210;6.504;2023-03-01T16:05:27;8.40;99.90
52058;DHT22;38063;53.210;6.504;2023-03-01T16:07:53;8.30;99.90
52058;DHT22;38063;53.210;6.504;2023-03-01T16:10:20;8.20;99.90
52058;DHT22;38063;53.210;6.504;2023-03-01T16:12:45;8.00;99.90
52058;DHT22;38063;53.210;6.504;2023-03-01T16:15:22;9.00;99.90
52058;DHT22;38063;53.210;6.504;2023-03-01T16:17:48;8.80;99.90
52058;DHT22;38063;53.210;6.504;2023-03-01T16:20:14;7.90;99.90
52058;DHT22;38063;53.210;6.504;2023-03-01T16:22:43;7.90;99.90
52058;DHT22;38063;53.210;6.504;2023-03-01T16:25:15;7.90;99.90
52058;DHT22;38063;53.210;6.504;2023-03-01T16:27:45;7.70;99.90
52058;DHT22;38063;53.210;6.504;2023-03-01T16:30:13;7.50;99.90
52058;DHT22;38063;53.210;6.504;2023-03-01T16:32:40;7.30;99.90
52058;DHT22;38063;53.210;6.504;2023-03-01T16:35:07;7.10;99.90
52058;DHT22;38063;53.210;6.504;2023-03-01T16:37:34;6.90;99.90
52058;DHT22;38063;53.210;6.504;2023-03-01T16:40:00;6.80;99.90
52058;DHT22;38063;53.210;6.504;2023-03-01T16:42:26;6.60;99.90
52058;DHT22;38063;53.210;6.504;2023-03-01T16:44:55;6.50;99.90
52058;DHT22;38063;53.210;6.504;2023-03-01T16:47:21;6.40;99.90
52058;DHT22;38063;53.210;6.504;2023-03-01T16:49:47;6.80;99.90
52058;DHT22;38063;53.210;6.504;2023-03-01T16:52:16;6.60;99.90
52058;DHT22;38063;53.210;6.504;2023-03-01T16:54:42;6.10;99.90
52058;DHT22;38063;53.210;6.504;2023-03-01T16:57:08;6.10;99.90
52058;DHT22;38063;53.210;6.504;2023-03-01T16:59:33;6.00;99.90
52058;DHT22;38063;53.210;6.504;2023-03-01T17:01:59;5.90;99.90
52058;DHT22;38063;53.210;6.504;2023-03-01T17:04:24;5.80;99.90
52058;DHT22;38063;53.210;6.504;2023-03-01T17:06:50;5.80;99.90
52058;DHT22;38063;53.210;6.504;2023-03-01T17:09:16;5.40;99.90
52058;DHT22;38063;53.210;6.504;2023-03-01T17:11:42;5.60;99.90
52058;DHT22;38063;53.210;6.504;2023-03-01T17:14:08;5.60;99.90
52058;DHT22;38063;53.210;6.504;2023-03-01T17:16:34;6.20;99.90
52058;DHT22;38063;53.210;6.504;2023-03-01T17:19:00;5.40;99.90
52058;DHT22;38063;53.210;6.504;2023-03-01T17:21:26;5.40;99.90
52058;DHT22;38063;53.210;6.504;2023-03-01T17:23:56;5.40;99.90
52058;DHT22;38063;53.210;6.504;2023-03-01T17:26:22;5.30;99.90
52058;DHT22;38063;53.210;6.504;2023-03-01T17:28:48;5.40;99.90
52058;DHT22;38063;53.210;6.504;2023-03-01T17:31:17;5.60;99.90
52058;DHT22;38063;53.210;6.504;2023-03-01T17:33:43;5.10;99.90
52058;DHT22;38063;53.210;6.504;2023-03-01T17:36:09;5.10;99.90
52058;DHT22;38063;53.210;6.504;2023-03-01T17:38:34;5.10;99.90
52058;DHT22;38063;53.210;6.504;2023-03-01T17:41:02;5.00;99.90
52058;DHT22;38063;53.210;6.504;2023-03-01T17:43:28;4.90;99.90
52058;DHT22;38063;53.210;6.504;2023-03-01T17:45:55;4.90;99.90
52058;DHT22;38063;53.210;6.504;2023-03-01T17:48:21;4.80;99.90
52058;DHT22;38063;53.210;6.504;2023-03-01T17:50:47;4.80;99.90
52058;DHT22;38063;53.210;6.504;2023-03-01T17:53:14;4.70;99.90